sensor_id;sensor_type;location;lat;lon;timestamp;temperature;humidity
7562;DHT22;3822;48.784;9.174;2022-09-12T00:01:12;19.00;88.80
7562;DHT22;3822;48.784;9.174;2022-09-12T00:03:44;19.00;88.90
7562;DHT22;3822;48.784;9.174;2022-09-12T00:06:12;19.00;89.00
7562;DHT22;3822;48.784;9.174;2022-09-12T00:08:41;19.00;89.10
7562;DHT22;3822;48.784;9.174;2022-09-12T00:11:10;18.90;89.00
7562;DHT22;3822;48.784;9.174;2022-09-12T00:13:40;18.90;89.10
7562;DHT22;3822;48.784;9.174;2022-09-12T00:16:13;18.90;89.10
7562;DHT22;3822;48.784;9.174;2022-09-12T00:18:41;18.80;89.10
7562;DHT22;3822;48.784;9.174;2022-09-12T00:21:07;18.90;89.30
7562;DHT22;3822;48.784;9.174;2022-09-12T00:23:34;18.80;89.30
7562;DHT22;3822;48.784;9.174;2022-09-12T00:26:04;18.80;89.40
7562;DHT22;3822;48.784;9.174;2022-09-12T00:28:36;18.80;89.50
7562;DHT22;3822;48.784;9.174;2022-09-12T00:31:15;18.80;89.60
7562;DHT22;3822;48.784;9.174;2022-09-12T00:33:43;18.70;89.60
7562;DHT22;3822;48.784;9.174;2022-09-12T00:36:13;18.70;89.80
7562;DHT22;3822;48.784;9.174;2022-09-12T00:38:42;18.70;90.00
7562;DHT22;3822;48.784;9.174;2022-09-12T00:43:49;18.70;90.10
7562;DHT22;3822;48.784;9.174;2022-09-12T00:46:34;18.60;90.10
7562;DHT22;3822;48.784;9.174;2022-09-12T00:49:16;18.60;90.10
7562;DHT22;3822;48.784;9.174;2022-09-12T00:52:00;18.50;90.10
7562;DHT22;3822;48.784;9.174;2022-09-12T00:54:37;18.60;90.10
7562;DHT22;3822;48.784;9.174;2022-09-12T00:57:14;18.50;90.20
7562;DHT22;3822;48.784;9.174;2022-09-12T00:59:49;18.50;90.20
7562;DHT22;3822;48.784;9.174;2022-09-12T01:02:19;18.40;90.20
7562;DHT22;3822;48.784;9.174;2022-09-12T01:04:46;18.40;90.20
7562;DHT22;3822;48.784;9.174;2022-09-12T01:07:14;18.50;90.30
7562;DHT22;3822;48.784;9.174;2022-09-12T01:09:42;18.40;90.30
7562;DHT22;3822;48.784;9.174;2022-09-12T01:12:11;18.40;90.30
7562;DHT22;3822;48.784;9.174;2022-09-12T01:14:39;18.40;90.40
7562;DHT22;3822;48.784;9.174;2022-09-12T01:17:05;18.40;90.40
7562;DHT22;3822;48.784;9.174;2022-09-12T01:20:08;18.40;90.50
7562;DHT22;3822;48.784;9.174;2022-09-12T01:28:51;18.30;90.70
7562;DHT22;3822;48.784;9.174;2022-09-12T01:31:36;18.30;90.60
7562;DHT22;3822;48.784;9.174;2022-09-12T01:34:45;18.20;90.60
7562;DHT22;3822;48.784;9.174;2022-09-12T01:37:53;18.20;90.70
7562;DHT22;3822;48.784;9.174;2022-09-12T01:40:59;18.20;90.70
7562;DHT22;3822;48.784;9.174;2022-09-12T01:43:36;18.10;90.70
7562;DHT22;3822;48.784;9.174;2022-09-12T01:48:56;18.10;90.80
7562;DHT22;3822;48.784;9.174;2022-09-12T01:51:58;18.00;90.90
7562;DHT22;3822;48.784;9.174;2022-09-12T01:54:40;18.00;90.90
7562;DHT22;3822;48.784;9.174;2022-09-12T01:57:21;18.00;91.00
7562;DHT22;3822;48.784;9.174;2022-09-12T02:00:05;18.00;91.00
7562;DHT22;3822;48.784;9.174;2022-09-12T02:02:39;17.90;91.00
7562;DHT22;3822;48.784;9.174;2022-09-12T02:05:22;18.00;91.10
7562;DHT22;3822;48.784;9.174;2022-09-12T02:08:06;17.90;91.00
7562;DHT22;3822;48.784;9.174;2022-09-12T02:10:43;17.90;91.10
7562;DHT22;3822;48.784;9.174;2022-09-12T02:13:21;17.80;91.00
7562;DHT22;3822;48.784;9.174;2022-09-12T02:16:00;17.90;91.10
7562;DHT22;3822;48.784;9.174;2022-09-12T02:18:32;17.80;91.00
7562;DHT22;3822;48.784;9.174;2022-09-12T02:21:00;17.80;91.00
7562;DHT22;3822;48.784;9.174;2022-09-12T02:23:31;17.80;91.00
7562;DHT22;3822;48.784;9.174;2022-09-12T02:26:05;17.80;91.00
7562;DHT22;3822;48.784;9.174;2022-09-12T02:28:41;17.90;91.10
7562;DHT22;3822;48.784;9.174;2022-09-12T02:37:09;17.80;91.20
7562;DHT22;3822;48.784;9.174;2022-09-12T02:39:41;17.80;91.20
7562;DHT22;3822;48.784;9.174;2022-09-12T02:42:08;17.70;91.20
7562;DHT22;3822;48.784;9.174;2022-09-12T02:44:35;17.70;91.20
7562;DHT22;3822;48.784;9.174;2022-09-12T02:47:09;17.70;91.20
7562;DHT22;3822;48.784;9.174;2022-09-12T02:49:42;17.70;91.20
7562;DHT22;3822;48.784;9.174;2022-09-12T02:52:08;17.70;91.20
7562;DHT22;3822;48.784;9.174;2022-09-12T02:54:35;17.70;91.30
7562;DHT22;3822;48.784;9.174;2022-09-12T02:57:13;17.60;91.20
7562;DHT22;3822;48.784;9.174;2022-09-12T02:59:41;17.60;91.20
7562;DHT22;3822;48.784;9.174;2022-09-12T03:05:12;17.60;91.20
7562;DHT22;3822;48.784;9.174;2022-09-12T03:08:10;17.60;91.30
7562;DHT22;3822;48.784;9.174;2022-09-12T03:22:19;17.50;91.40
7562;DHT22;3822;48.784;9.174;2022-09-12T03:25:24;17.50;91.70
7562;DHT22;3822;48.784;9.174;2022-09-12T03:28:06;17.40;91.40
7562;DHT22;3822;48.784;9.174;2022-09-12T03:30:43;17.30;91.40
7562;DHT22;3822;48.784;9.174;2022-09-12T03:33:22;17.30;91.50
7562;DHT22;3822;48.784;9.174;2022-09-12T03:35:50;17.30;91.60
7562;DHT22;3822;48.784;9.174;2022-09-12T03:38:18;17.30;91.60
7562;DHT22;3822;48.784;9.174;2022-09-12T03:40:44;17.30;91.70
7562;DHT22;3822;48.784;9.174;2022-09-12T03:43:12;17.30;91.70
7562;DHT22;3822;48.784;9.174;2022-09-12T03:45:38;17.30;92.00
7562;DHT22;3822;48.784;9.174;2022-09-12T03:48:05;17.30;91.70
7562;DHT22;3822;48.784;9.174;2022-09-12T03:50:31;17.30;91.70
7562;DHT22;3822;48.784;9.174;2022-09-12T03:52:58;17.20;92.00
7562;DHT22;3822;48.784;9.174;2022-09-12T03:55:25;17.30;91.80
7562;DHT22;3822;48.784;9.174;2022-09-12T03:57:55;17.30;91.80
7562;DHT22;3822;48.784;9.174;2022-09-12T04:00:22;17.20;91.70
7562;DHT22;3822;48.784;9.174;2022-09-12T04:02:53;17.20;91.70
7562;DHT22;3822;48.784;9.174;2022-09-12T04:05:23;17.20;91.80
7562;DHT22;3822;48.784;9.174;2022-09-12T04:07:51;17.20;91.80
7562;DHT22;3822;48.784;9.174;2022-09-12T04:10:17;17.20;91.80
7562;DHT22;3822;48.784;9.174;2022-09-12T04:12:44;17.20;91.80
7562;DHT22;3822;48.784;9.174;2022-09-12T04:15:10;17.20;91.80
7562;DHT22;3822;48.784;9.174;2022-09-12T04:17:37;17.20;91.90
7562;DHT22;3822;48.784;9.174;2022-09-12T04:20:04;17.20;91.90
7562;DHT22;3822;48.784;9.174;2022-09-12T04:22:31;17.10;91.90
7562;DHT22;3822;48.784;9.174;2022-09-12T04:24:58;17.10;91.90
7562;DHT22;3822;48.784;9.174;2022-09-12T04:27:24;17.10;91.90
7562;DHT22;3822;48.784;9.174;2022-09-12T04:29:51;17.10;92.00
7562;DHT22;3822;48.784;9.174;2022-09-12T04:32:20;17.10;92.00
7562;DHT22;3822;48.784;9.174;2022-09-12T04:34:47;17.10;92.00
7562;DHT22;3822;48.784;9.174;2022-09-12T04:37:14;17.00;92.00
7562;DHT22;3822;48.784;9.174;2022-09-12T04:39:41;17.00;92.10
7562;DHT22;3822;48.784;9.174;2022-09-12T04:42:08;16.90;92.10
7562;DHT22;3822;48.784;9.174;2022-09-12T04:44:34;16.90;92.20
7562;DHT22;3822;48.784;9.174;2022-09-12T04:47:01;16.90;92.70
7562;DHT22;3822;48.784;9.174;2022-09-12T04:49:28;17.00;92.50
7562;DHT22;3822;48.784;9.174;2022-09-12T04:51:55;16.90;92.50
7562;DHT22;3822;48.784;9.174;2022-09-12T04:54:21;16.90;92.50
7562;DHT22;3822;48.784;9.174;2022-09-12T04:56:49;17.00;92.50
7562;DHT22;3822;48.784;9.174;2022-09-12T04:59:17;17.00;92.50
7562;DHT22;3822;48.784;9.174;2022-09-12T05:01:45;16.90;92.40
7562;DHT22;3822;48.784;9.174;2022-09-12T05:04:12;17.00;92.50
7562;DHT22;3822;48.784;9.174;2022-09-12T05:06:40;16.90;92.40
7562;DHT22;3822;48.784;9.174;2022-09-12T05:09:10;16.90;92.40
7562;DHT22;3822;48.784;9.174;2022-09-12T05:11:39;17.00;92.50
7562;DHT22;3822;48.784;9.174;2022-09-12T05:14:06;16.90;92.40
7562;DHT22;3822;48.784;9.174;2022-09-12T05:16:33;17.00;92.40
7562;DHT22;3822;48.784;9.174;2022-09-12T05:18:59;17.00;92.40
7562;DHT22;3822;48.784;9.174;2022-09-12T05:21:26;17.00;92.40
7562;DHT22;3822;48.784;9.174;2022-09-12T05:23:55;17.00;92.40
7562;DHT22;3822;48.784;9.174;2022-09-12T05:26:22;17.00;92.40
7562;DHT22;3822;48.784;9.174;2022-09-12T05:28:50;17.00;92.40
7562;DHT22;3822;48.784;9.174;2022-09-12T05:31:19;17.00;92.40
7562;DHT22;3822;48.784;9.174;2022-09-12T05:33:51;17.00;92.40
7562;DHT22;3822;48.784;9.174;2022-09-12T05:36:28;17.00;92.30
7562;DHT22;3822;48.784;9.174;2022-09-12T05:38:56;17.00;92.20
7562;DHT22;3822;48.784;9.174;2022-09-12T05:41:27;16.90;92.30
7562;DHT22;3822;48.784;9.174;2022-09-12T05:43:57;16.90;92.40
7562;DHT22;3822;48.784;9.174;2022-09-12T05:46:27;16.80;92.40
7562;DHT22;3822;48.784;9.174;2022-09-12T05:48:55;16.90;92.50
7562;DHT22;3822;48.784;9.174;2022-09-12T05:51:25;16.90;92.60
7562;DHT22;3822;48.784;9.174;2022-09-12T05:53:56;16.90;92.60
7562;DHT22;3822;48.784;9.174;2022-09-12T05:56:26;17.00;92.60
7562;DHT22;3822;48.784;9.174;2022-09-12T05:59:01;17.00;92.60
7562;DHT22;3822;48.784;9.174;2022-09-12T06:01:30;17.10;92.60
7562;DHT22;3822;48.784;9.174;2022-09-12T06:04:00;17.10;92.60
7562;DHT22;3822;48.784;9.174;2022-09-12T06:06:29;17.10;92.50
7562;DHT22;3822;48.784;9.174;2022-09-12T06:08:58;17.10;92.50
7562;DHT22;3822;48.784;9.174;2022-09-12T06:11:28;17.20;92.50
7562;DHT22;3822;48.784;9.174;2022-09-12T06:13:57;17.20;92.40
7562;DHT22;3822;48.784;9.174;2022-09-12T06:16:27;17.30;92.40
7562;DHT22;3822;48.784;9.174;2022-09-12T06:19:04;17.40;92.40
7562;DHT22;3822;48.784;9.174;2022-09-12T06:21:34;17.40;92.50
7562;DHT22;3822;48.784;9.174;2022-09-12T06:24:01;17.40;92.30
7562;DHT22;3822;48.784;9.174;2022-09-12T06:26:27;17.50;92.30
7562;DHT22;3822;48.784;9.174;2022-09-12T06:28:56;17.50;92.30
7562;DHT22;3822;48.784;9.174;2022-09-12T06:31:35;17.60;92.30
7562;DHT22;3822;48.784;9.174;2022-09-12T06:34:05;17.60;92.20
7562;DHT22;3822;48.784;9.174;2022-09-12T06:36:37;17.70;92.10
7562;DHT22;3822;48.784;9.174;2022-09-12T06:39:11;17.70;92.00
7562;DHT22;3822;48.784;9.174;2022-09-12T06:41:39;17.70;91.90
7562;DHT22;3822;48.784;9.174;2022-09-12T06:44:05;17.70;92.10
7562;DHT22;3822;48.784;9.174;2022-09-12T06:46:32;17.80;92.10
7562;DHT22;3822;48.784;9.174;2022-09-12T06:49:00;17.90;92.00
7562;DHT22;3822;48.784;9.174;2022-09-12T06:51:27;17.90;92.00
7562;DHT22;3822;48.784;9.174;2022-09-12T06:53:55;18.00;92.10
7562;DHT22;3822;48.784;9.174;2022-09-12T06:56:25;18.10;91.90
7562;DHT22;3822;48.784;9.174;2022-09-12T06:58:54;18.20;91.80
7562;DHT22;3822;48.784;9.174;2022-09-12T07:01:27;18.20;91.70
7562;DHT22;3822;48.784;9.174;2022-09-12T07:03:57;18.30;91.70
7562;DHT22;3822;48.784;9.174;2022-09-12T07:06:28;18.40;91.70
7562;DHT22;3822;48.784;9.174;2022-09-12T07:08:58;18.50;91.60
7562;DHT22;3822;48.784;9.174;2022-09-12T07:11:27;18.50;91.50
7562;DHT22;3822;48.784;9.174;2022-09-12T07:13:59;18.60;91.40
7562;DHT22;3822;48.784;9.174;2022-09-12T07:16:27;18.70;91.30
7562;DHT22;3822;48.784;9.174;2022-09-12T07:18:59;18.80;91.20
7562;DHT22;3822;48.784;9.174;2022-09-12T07:21:27;18.90;91.10
7562;DHT22;3822;48.784;9.174;2022-09-12T07:23:55;18.90;91.10
7562;DHT22;3822;48.784;9.174;2022-09-12T07:26:26;19.00;91.00
7562;DHT22;3822;48.784;9.174;2022-09-12T07:28:55;19.10;91.00
7562;DHT22;3822;48.784;9.174;2022-09-12T07:31:24;19.20;90.90
7562;DHT22;3822;48.784;9.174;2022-09-12T07:33:52;19.30;90.80
7562;DHT22;3822;48.784;9.174;2022-09-12T07:36:20;19.30;90.60
7562;DHT22;3822;48.784;9.174;2022-09-12T07:38:56;19.40;90.60
7562;DHT22;3822;48.784;9.174;2022-09-12T07:41:28;19.50;90.50
7562;DHT22;3822;48.784;9.174;2022-09-12T07:43:58;19.50;90.40
7562;DHT22;3822;48.784;9.174;2022-09-12T07:46:27;19.50;90.40
7562;DHT22;3822;48.784;9.174;2022-09-12T07:48:56;19.60;90.30
7562;DHT22;3822;48.784;9.174;2022-09-12T07:51:25;19.70;90.20
7562;DHT22;3822;48.784;9.174;2022-09-12T07:53:53;19.70;90.10
7562;DHT22;3822;48.784;9.174;2022-09-12T07:56:20;19.70;90.00
7562;DHT22;3822;48.784;9.174;2022-09-12T07:58:46;19.70;90.00
7562;DHT22;3822;48.784;9.174;2022-09-12T08:01:19;19.80;90.00
7562;DHT22;3822;48.784;9.174;2022-09-12T08:03:52;19.80;89.90
7562;DHT22;3822;48.784;9.174;2022-09-12T08:06:21;19.80;89.80
7562;DHT22;3822;48.784;9.174;2022-09-12T08:08:52;19.90;89.60
7562;DHT22;3822;48.784;9.174;2022-09-12T08:11:21;19.90;89.50
7562;DHT22;3822;48.784;9.174;2022-09-12T08:13:48;19.90;89.40
7562;DHT22;3822;48.784;9.174;2022-09-12T08:16:19;19.90;89.30
7562;DHT22;3822;48.784;9.174;2022-09-12T08:18:47;19.80;89.20
7562;DHT22;3822;48.784;9.174;2022-09-12T08:21:19;19.90;89.30
7562;DHT22;3822;48.784;9.174;2022-09-12T08:23:50;20.00;89.30
7562;DHT22;3822;48.784;9.174;2022-09-12T08:26:17;20.00;89.20
7562;DHT22;3822;48.784;9.174;2022-09-12T08:28:44;20.00;89.00
7562;DHT22;3822;48.784;9.174;2022-09-12T08:31:13;20.00;89.00
7562;DHT22;3822;48.784;9.174;2022-09-12T08:33:41;20.10;88.90
7562;DHT22;3822;48.784;9.174;2022-09-12T08:38:40;20.20;88.70
7562;DHT22;3822;48.784;9.174;2022-09-12T08:44:08;20.30;88.40
7562;DHT22;3822;48.784;9.174;2022-09-12T08:52:59;20.40;88.10
7562;DHT22;3822;48.784;9.174;2022-09-12T08:55:44;20.40;88.20
7562;DHT22;3822;48.784;9.174;2022-09-12T08:58:18;20.50;88.90
7562;DHT22;3822;48.784;9.174;2022-09-12T09:01:07;20.50;88.10
7562;DHT22;3822;48.784;9.174;2022-09-12T09:09:52;20.70;87.60
7562;DHT22;3822;48.784;9.174;2022-09-12T09:15:37;20.80;87.20
7562;DHT22;3822;48.784;9.174;2022-09-12T09:18:16;20.90;86.90
7562;DHT22;3822;48.784;9.174;2022-09-12T09:20:58;21.00;86.90
7562;DHT22;3822;48.784;9.174;2022-09-12T09:23:49;21.10;86.70
7562;DHT22;3822;48.784;9.174;2022-09-12T09:26:33;21.10;86.80
7562;DHT22;3822;48.784;9.174;2022-09-12T09:29:22;21.20;86.00
7562;DHT22;3822;48.784;9.174;2022-09-12T09:31:53;21.30;85.70
7562;DHT22;3822;48.784;9.174;2022-09-12T09:34:23;21.30;85.50
7562;DHT22;3822;48.784;9.174;2022-09-12T09:36:51;21.30;85.10
7562;DHT22;3822;48.784;9.174;2022-09-12T09:45:19;21.50;84.00
7562;DHT22;3822;48.784;9.174;2022-09-12T09:48:22;21.60;83.80
7562;DHT22;3822;48.784;9.174;2022-09-12T09:50:52;21.70;83.40
7562;DHT22;3822;48.784;9.174;2022-09-12T09:53:44;21.70;83.00
7562;DHT22;3822;48.784;9.174;2022-09-12T09:56:25;21.80;82.20
7562;DHT22;3822;48.784;9.174;2022-09-12T10:04:25;21.90;81.60
7562;DHT22;3822;48.784;9.174;2022-09-12T10:06:57;22.00;81.20
7562;DHT22;3822;48.784;9.174;2022-09-12T10:09:30;22.00;80.30
7562;DHT22;3822;48.784;9.174;2022-09-12T10:11:59;22.10;79.70
7562;DHT22;3822;48.784;9.174;2022-09-12T10:16:57;22.20;78.30
7562;DHT22;3822;48.784;9.174;2022-09-12T10:19:33;22.30;77.40
7562;DHT22;3822;48.784;9.174;2022-09-12T10:22:03;22.40;77.10
7562;DHT22;3822;48.784;9.174;2022-09-12T10:24:40;22.40;76.50
7562;DHT22;3822;48.784;9.174;2022-09-12T10:29:48;22.60;75.70
7562;DHT22;3822;48.784;9.174;2022-09-12T10:32:27;22.70;74.80
7562;DHT22;3822;48.784;9.174;2022-09-12T10:35:29;22.70;73.70
7562;DHT22;3822;48.784;9.174;2022-09-12T10:38:05;22.80;72.80
7562;DHT22;3822;48.784;9.174;2022-09-12T10:40:39;23.00;72.40
7562;DHT22;3822;48.784;9.174;2022-09-12T10:45:50;23.10;70.30
7562;DHT22;3822;48.784;9.174;2022-09-12T10:48:24;23.20;70.30
7562;DHT22;3822;48.784;9.174;2022-09-12T10:50:54;23.30;69.60
7562;DHT22;3822;48.784;9.174;2022-09-12T10:53:27;23.40;68.70
7562;DHT22;3822;48.784;9.174;2022-09-12T11:24:22;24.60;63.50
7562;DHT22;3822;48.784;9.174;2022-09-12T11:32:42;24.90;61.60
7562;DHT22;3822;48.784;9.174;2022-09-12T11:43:40;25.50;58.90
7562;DHT22;3822;48.784;9.174;2022-09-12T11:46:35;25.60;57.80
7562;DHT22;3822;48.784;9.174;2022-09-12T12:03:10;26.30;54.00
7562;DHT22;3822;48.784;9.174;2022-09-12T12:06:10;26.50;54.30
7562;DHT22;3822;48.784;9.174;2022-09-12T12:08:47;26.60;52.90
7562;DHT22;3822;48.784;9.174;2022-09-12T12:11:29;26.70;52.10
7562;DHT22;3822;48.784;9.174;2022-09-12T12:14:05;26.90;51.00
7562;DHT22;3822;48.784;9.174;2022-09-12T12:16:37;27.00;49.30
7562;DHT22;3822;48.784;9.174;2022-09-12T12:24:25;27.20;47.30
7562;DHT22;3822;48.784;9.174;2022-09-12T12:27:00;27.30;47.80
7562;DHT22;3822;48.784;9.174;2022-09-12T12:47:46;28.20;46.20
7562;DHT22;3822;48.784;9.174;2022-09-12T12:53:00;28.40;45.70
7562;DHT22;3822;48.784;9.174;2022-09-12T12:55:30;28.60;45.80
7562;DHT22;3822;48.784;9.174;2022-09-12T12:58:01;28.70;46.00
7562;DHT22;3822;48.784;9.174;2022-09-12T13:00:39;28.80;45.50
7562;DHT22;3822;48.784;9.174;2022-09-12T13:05:49;29.10;45.10
7562;DHT22;3822;48.784;9.174;2022-09-12T13:10:55;29.40;44.20
7562;DHT22;3822;48.784;9.174;2022-09-12T13:13:30;29.50;43.90
7562;DHT22;3822;48.784;9.174;2022-09-12T13:15:58;29.60;43.30
7562;DHT22;3822;48.784;9.174;2022-09-12T13:21:16;29.90;41.70
7562;DHT22;3822;48.784;9.174;2022-09-12T13:23:57;29.90;40.90
7562;DHT22;3822;48.784;9.174;2022-09-12T13:26:27;30.00;40.90
7562;DHT22;3822;48.784;9.174;2022-09-12T13:29:19;30.10;41.00
7562;DHT22;3822;48.784;9.174;2022-09-12T13:31:52;30.30;40.40
7562;DHT22;3822;48.784;9.174;2022-09-12T13:34:34;30.30;40.00
7562;DHT22;3822;48.784;9.174;2022-09-12T13:42:43;30.60;39.40
7562;DHT22;3822;48.784;9.174;2022-09-12T13:45:23;30.70;38.90
7562;DHT22;3822;48.784;9.174;2022-09-12T13:48:02;30.80;38.60
7562;DHT22;3822;48.784;9.174;2022-09-12T13:53:45;30.90;37.40
7562;DHT22;3822;48.784;9.174;2022-09-12T13:56:19;31.00;37.30
7562;DHT22;3822;48.784;9.174;2022-09-12T13:58:56;31.10;37.60
7562;DHT22;3822;48.784;9.174;2022-09-12T14:01:40;31.30;37.50
7562;DHT22;3822;48.784;9.174;2022-09-12T14:04:17;31.50;36.50
7562;DHT22;3822;48.784;9.174;2022-09-12T14:07:20;31.70;36.70
7562;DHT22;3822;48.784;9.174;2022-09-12T14:09:55;31.90;36.60
7562;DHT22;3822;48.784;9.174;2022-09-12T14:12:35;32.10;36.20
7562;DHT22;3822;48.784;9.174;2022-09-12T14:15:06;32.30;36.10
7562;DHT22;3822;48.784;9.174;2022-09-12T14:17:48;32.50;36.60
7562;DHT22;3822;48.784;9.174;2022-09-12T14:20:20;32.70;35.40
7562;DHT22;3822;48.784;9.174;2022-09-12T14:22:49;32.80;35.20
7562;DHT22;3822;48.784;9.174;2022-09-12T14:25:19;33.00;35.00
7562;DHT22;3822;48.784;9.174;2022-09-12T14:27:55;33.20;34.30
7562;DHT22;3822;48.784;9.174;2022-09-12T14:30:26;33.30;33.80
7562;DHT22;3822;48.784;9.174;2022-09-12T14:35:41;33.60;33.30
7562;DHT22;3822;48.784;9.174;2022-09-12T14:40:46;33.70;32.70
7562;DHT22;3822;48.784;9.174;2022-09-12T14:43:37;33.80;31.80
7562;DHT22;3822;48.784;9.174;2022-09-12T14:46:17;33.90;31.90
7562;DHT22;3822;48.784;9.174;2022-09-12T14:48:49;33.90;32.10
7562;DHT22;3822;48.784;9.174;2022-09-12T14:53:51;34.10;32.20
7562;DHT22;3822;48.784;9.174;2022-09-12T14:56:21;34.30;32.10
7562;DHT22;3822;48.784;9.174;2022-09-12T14:58:48;34.40;31.90
7562;DHT22;3822;48.784;9.174;2022-09-12T15:06:25;34.70;30.80
7562;DHT22;3822;48.784;9.174;2022-09-12T15:08:56;34.70;30.80
7562;DHT22;3822;48.784;9.174;2022-09-12T15:11:24;34.80;31.20
7562;DHT22;3822;48.784;9.174;2022-09-12T15:13:51;35.00;31.00
7562;DHT22;3822;48.784;9.174;2022-09-12T15:16:18;35.00;30.40
7562;DHT22;3822;48.784;9.174;2022-09-12T15:18:45;35.20;30.30
7562;DHT22;3822;48.784;9.174;2022-09-12T15:21:15;35.30;30.50
7562;DHT22;3822;48.784;9.174;2022-09-12T15:23:46;35.40;30.20
7562;DHT22;3822;48.784;9.174;2022-09-12T15:26:22;35.40;29.80
7562;DHT22;3822;48.784;9.174;2022-09-12T15:28:51;35.50;29.40
7562;DHT22;3822;48.784;9.174;2022-09-12T15:31:27;35.60;29.50
7562;DHT22;3822;48.784;9.174;2022-09-12T15:33:56;35.80;29.50
7562;DHT22;3822;48.784;9.174;2022-09-12T15:36:24;35.90;29.20
7562;DHT22;3822;48.784;9.174;2022-09-12T15:38:52;35.90;29.20
7562;DHT22;3822;48.784;9.174;2022-09-12T15:43:52;36.00;28.90
7562;DHT22;3822;48.784;9.174;2022-09-12T15:46:19;36.10;29.10
7562;DHT22;3822;48.784;9.174;2022-09-12T15:48:45;36.20;29.10
7562;DHT22;3822;48.784;9.174;2022-09-12T15:51:13;36.20;29.20
7562;DHT22;3822;48.784;9.174;2022-09-12T15:53:43;36.30;29.00
7562;DHT22;3822;48.784;9.174;2022-09-12T15:56:10;36.40;29.00
7562;DHT22;3822;48.784;9.174;2022-09-12T15:58:37;36.40;28.90
7562;DHT22;3822;48.784;9.174;2022-09-12T16:01:04;36.50;28.80
7562;DHT22;3822;48.784;9.174;2022-09-12T16:03:30;36.60;28.80
7562;DHT22;3822;48.784;9.174;2022-09-12T16:06:00;36.60;28.70
7562;DHT22;3822;48.784;9.174;2022-09-12T16:08:29;36.70;28.60
7562;DHT22;3822;48.784;9.174;2022-09-12T16:10:59;36.70;28.40
7562;DHT22;3822;48.784;9.174;2022-09-12T16:13:28;36.70;28.50
7562;DHT22;3822;48.784;9.174;2022-09-12T16:15:58;36.70;28.60
7562;DHT22;3822;48.784;9.174;2022-09-12T16:18:26;36.60;28.50
7562;DHT22;3822;48.784;9.174;2022-09-12T16:20:54;36.70;28.50
7562;DHT22;3822;48.784;9.174;2022-09-12T16:23:21;36.60;28.60
7562;DHT22;3822;48.784;9.174;2022-09-12T16:25:59;36.60;28.80
7562;DHT22;3822;48.784;9.174;2022-09-12T16:28:27;36.60;29.10
7562;DHT22;3822;48.784;9.174;2022-09-12T16:30:55;36.60;29.00
7562;DHT22;3822;48.784;9.174;2022-09-12T16:33:23;36.50;28.80
7562;DHT22;3822;48.784;9.174;2022-09-12T16:35:51;36.40;28.70
7562;DHT22;3822;48.784;9.174;2022-09-12T16:38:21;36.30;28.70
7562;DHT22;3822;48.784;9.174;2022-09-12T16:40:47;36.20;28.80
7562;DHT22;3822;48.784;9.174;2022-09-12T16:43:14;36.10;28.80
7562;DHT22;3822;48.784;9.174;2022-09-12T16:45:45;36.00;28.70
7562;DHT22;3822;48.784;9.174;2022-09-12T16:48:11;35.80;28.50
7562;DHT22;3822;48.784;9.174;2022-09-12T16:50:38;35.70;28.90
7562;DHT22;3822;48.784;9.174;2022-09-12T16:53:05;35.50;28.70
7562;DHT22;3822;48.784;9.174;2022-09-12T16:55:31;35.30;28.70
7562;DHT22;3822;48.784;9.174;2022-09-12T16:57:58;35.00;28.80
7562;DHT22;3822;48.784;9.174;2022-09-12T17:00:24;34.90;28.90
7562;DHT22;3822;48.784;9.174;2022-09-12T17:02:51;34.60;29.00
7562;DHT22;3822;48.784;9.174;2022-09-12T17:05:17;34.40;29.30
7562;DHT22;3822;48.784;9.174;2022-09-12T17:07:44;34.20;29.60
7562;DHT22;3822;48.784;9.174;2022-09-12T17:10:10;34.00;29.60
7562;DHT22;3822;48.784;9.174;2022-09-12T17:12:36;33.90;29.70
7562;DHT22;3822;48.784;9.174;2022-09-12T17:15:03;33.60;29.80
7562;DHT22;3822;48.784;9.174;2022-09-12T17:17:30;33.40;30.00
7562;DHT22;3822;48.784;9.174;2022-09-12T17:19:56;33.20;30.20
7562;DHT22;3822;48.784;9.174;2022-09-12T17:22:23;32.90;30.50
7562;DHT22;3822;48.784;9.174;2022-09-12T17:24:49;32.70;30.90
7562;DHT22;3822;48.784;9.174;2022-09-12T17:27:16;32.60;31.20
7562;DHT22;3822;48.784;9.174;2022-09-12T17:29:42;32.40;31.60
7562;DHT22;3822;48.784;9.174;2022-09-12T17:32:09;32.30;32.00
7562;DHT22;3822;48.784;9.174;2022-09-12T17:34:35;32.10;32.20
7562;DHT22;3822;48.784;9.174;2022-09-12T17:37:01;31.90;32.40
7562;DHT22;3822;48.784;9.174;2022-09-12T17:39:28;31.80;32.80
7562;DHT22;3822;48.784;9.174;2022-09-12T17:41:54;31.60;32.90
7562;DHT22;3822;48.784;9.174;2022-09-12T17:44:22;31.40;33.10
7562;DHT22;3822;48.784;9.174;2022-09-12T17:46:49;31.20;33.50
7562;DHT22;3822;48.784;9.174;2022-09-12T17:49:16;31.00;33.70
7562;DHT22;3822;48.784;9.174;2022-09-12T17:51:43;30.90;34.10
7562;DHT22;3822;48.784;9.174;2022-09-12T17:54:12;30.70;34.10
7562;DHT22;3822;48.784;9.174;2022-09-12T17:56:41;30.50;34.20
7562;DHT22;3822;48.784;9.174;2022-09-12T17:59:13;30.30;34.70
7562;DHT22;3822;48.784;9.174;2022-09-12T18:01:44;30.20;34.90
7562;DHT22;3822;48.784;9.174;2022-09-12T18:04:32;30.00;35.10
7562;DHT22;3822;48.784;9.174;2022-09-12T18:06:59;29.90;35.60
7562;DHT22;3822;48.784;9.174;2022-09-12T18:09:26;29.70;35.70
7562;DHT22;3822;48.784;9.174;2022-09-12T18:11:53;29.60;36.00
7562;DHT22;3822;48.784;9.174;2022-09-12T18:14:20;29.50;36.30
7562;DHT22;3822;48.784;9.174;2022-09-12T18:16:47;29.40;36.70
7562;DHT22;3822;48.784;9.174;2022-09-12T18:19:14;29.20;37.00
7562;DHT22;3822;48.784;9.174;2022-09-12T18:21:41;29.10;37.30
7562;DHT22;3822;48.784;9.174;2022-09-12T18:24:08;29.00;37.60
7562;DHT22;3822;48.784;9.174;2022-09-12T18:26:35;28.90;37.70
7562;DHT22;3822;48.784;9.174;2022-09-12T18:29:02;28.70;38.10
7562;DHT22;3822;48.784;9.174;2022-09-12T18:31:29;28.60;38.50
7562;DHT22;3822;48.784;9.174;2022-09-12T18:33:57;28.50;38.80
7562;DHT22;3822;48.784;9.174;2022-09-12T18:36:26;28.40;39.10
7562;DHT22;3822;48.784;9.174;2022-09-12T18:38:53;28.20;39.40
7562;DHT22;3822;48.784;9.174;2022-09-12T18:41:23;28.20;39.70
7562;DHT22;3822;48.784;9.174;2022-09-12T18:43:58;28.00;39.80
7562;DHT22;3822;48.784;9.174;2022-09-12T18:46:26;27.90;40.30
7562;DHT22;3822;48.784;9.174;2022-09-12T18:48:55;27.80;40.50
7562;DHT22;3822;48.784;9.174;2022-09-12T18:51:27;27.70;40.70
7562;DHT22;3822;48.784;9.174;2022-09-12T18:53:58;27.60;40.90
7562;DHT22;3822;48.784;9.174;2022-09-12T18:56:28;27.50;41.20
7562;DHT22;3822;48.784;9.174;2022-09-12T18:59:00;27.40;41.40
7562;DHT22;3822;48.784;9.174;2022-09-12T19:01:29;27.30;41.70
7562;DHT22;3822;48.784;9.174;2022-09-12T19:03:57;27.20;42.00
7562;DHT22;3822;48.784;9.174;2022-09-12T19:06:30;27.10;42.30
7562;DHT22;3822;48.784;9.174;2022-09-12T19:08:58;27.00;42.50
7562;DHT22;3822;48.784;9.174;2022-09-12T19:11:26;26.90;42.80
7562;DHT22;3822;48.784;9.174;2022-09-12T19:13:54;26.90;43.20
7562;DHT22;3822;48.784;9.174;2022-09-12T19:16:25;26.80;43.50
7562;DHT22;3822;48.784;9.174;2022-09-12T19:18:54;26.70;43.70
7562;DHT22;3822;48.784;9.174;2022-09-12T19:21:24;26.60;43.80
7562;DHT22;3822;48.784;9.174;2022-09-12T19:23:55;26.50;44.00
7562;DHT22;3822;48.784;9.174;2022-09-12T19:26:23;26.50;44.40
7562;DHT22;3822;48.784;9.174;2022-09-12T19:28:50;26.40;44.60
7562;DHT22;3822;48.784;9.174;2022-09-12T19:31:18;26.30;45.40
7562;DHT22;3822;48.784;9.174;2022-09-12T19:33:45;26.30;45.00
7562;DHT22;3822;48.784;9.174;2022-09-12T19:36:15;26.20;45.30
7562;DHT22;3822;48.784;9.174;2022-09-12T19:38:42;26.10;45.60